Time;durP1;ratioP1;P1;durP2;ratioP2;P2;SDS_P1;SDS_P2;PMS_P1;PMS_P2;Temp;Humidity;BMP_temperature;BMP_pressure;BME280_temperature;BME280_humidity;BME280_pressure;Samples;Min_cycle;Max_cycle;Signal;HPM_P1;HPM_P2
2021/12/28 00:01:40;;;;;;;0.90;0.85;;;;;;;18.52;39.45;101216.28;4167494;28;20033;-47
2021/12/28 00:03:43;;;;;;;1.10;1.00;;;;;;;18.52;39.49;101221.81;4165408;28;20046;-46
2021/12/28 00:05:44;;;;;;;1.60;1.10;;;;;;;18.51;39.40;101220.97;4166377;28;20037;-48
2021/12/28 00:07:46;;;;;;;1.10;1.00;;;;;;;18.50;39.12;101223.97;4167230;28;20111;-48
2021/12/28 00:09:51;;;;;;;1.10;1.00;;;;;;;18.47;39.04;101217.03;4166571;28;20416;-46
2021/12/28 00:11:53;;;;;;;1.25;1.00;;;;;;;18.49;39.40;101216.78;4166698;28;20103;-48
2021/12/28 00:14:00;;;;;;;0.90;0.80;;;;;;;18.48;39.39;101209.56;4167154;28;20025;-47
2021/12/28 00:16:18;;;;;;;1.10;1.00;;;;;;;18.47;39.57;101205.97;4166498;28;20103;-47
2021/12/28 00:18:20;;;;;;;2.60;1.00;;;;;;;18.50;39.45;101196.28;4165020;28;20041;-47
2021/12/28 00:20:21;;;;;;;1.13;0.90;;;;;;;18.48;39.58;101192.94;4166534;28;20041;-45
2021/12/28 00:22:22;;;;;;;1.10;1.00;;;;;;;18.46;39.29;101184.03;4166730;28;20104;-46
2021/12/28 00:24:24;;;;;;;1.45;0.80;;;;;;;18.39;39.13;101159.31;4166871;28;20072;-47
2021/12/28 00:26:27;;;;;;;0.80;0.80;;;;;;;18.43;39.35;101157.69;4181472;28;20067;-50
2021/12/28 00:28:28;;;;;;;1.05;0.95;;;;;;;18.43;39.54;101160.47;4165778;28;20076;-45
2021/12/28 00:30:32;;;;;;;1.33;1.00;;;;;;;18.40;39.56;101157.38;4166977;28;20033;-45
2021/12/28 00:32:36;;;;;;;1.88;1.23;;;;;;;18.38;39.21;101154.03;4166898;28;20045;-46
2021/12/28 00:34:37;;;;;;;0.80;0.80;;;;;;;18.42;39.41;101156.03;4165188;28;20551;-46
2021/12/28 00:36:39;;;;;;;1.38;0.90;;;;;;;18.41;39.27;101156.25;4166863;28;20115;-49
2021/12/28 00:38:41;;;;;;;2.60;1.13;;;;;;;18.39;39.52;101153.75;4166491;28;20088;-47
2021/12/28 00:40:42;;;;;;;1.20;1.05;;;;;;;18.40;39.69;101157.38;4166776;28;20097;-44
2021/12/28 00:42:45;;;;;;;0.90;0.80;;;;;;;18.38;39.31;101159.56;4166670;28;20084;-46
2021/12/28 00:44:46;;;;;;;1.08;0.98;;;;;;;18.40;39.46;101169.28;4165775;28;20103;-48
2021/12/28 00:46:47;;;;;;;0.90;0.90;;;;;;;18.40;39.59;101174.00;4166147;28;20087;-45
2021/12/28 00:48:49;;;;;;;1.42;0.90;;;;;;;18.35;39.55;101171.16;4166549;28;20030;-48
2021/12/28 00:50:52;;;;;;;1.33;1.23;;;;;;;18.38;39.71;101171.50;4165880;28;20041;-46
2021/12/28 00:52:55;;;;;;;1.85;1.02;;;;;;;18.37;39.59;101168.94;4166548;28;20099;-46
2021/12/28 00:54:56;;;;;;;1.10;1.00;;;;;;;18.36;39.45;101161.75;4166468;28;20029;-46
2021/12/28 00:57:01;;;;;;;1.20;1.10;;;;;;;18.32;39.32;101160.59;4166189;28;20037;-45
2021/12/28 00:59:02;;;;;;;1.33;1.23;;;;;;;18.36;39.67;101156.19;4164154;28;20045;-45
2021/12/28 01:01:05;;;;;;;2.25;0.85;;;;;;;18.35;39.73;101151.75;4165972;28;20037;-46
2021/12/28 01:03:09;;;;;;;1.63;1.10;;;;;;;18.35;39.74;101158.13;4165576;28;20025;-48
2021/12/28 01:05:10;;;;;;;1.50;1.10;;;;;;;18.28;39.72;101161.13;4166142;28;20072;-47
2021/12/28 01:07:12;;;;;;;1.20;1.00;;;;;;;18.33;39.56;101145.66;4165747;28;20503;-46
2021/12/28 01:09:13;;;;;;;1.40;1.10;;;;;;;18.33;39.50;101148.44;4166114;28;20464;-48
2021/12/28 01:11:15;;;;;;;1.52;1.10;;;;;;;18.33;39.40;101156.75;4165851;28;20042;-47
2021/12/28 01:13:16;;;;;;;1.23;1.10;;;;;;;18.32;39.66;101132.88;4165351;28;20046;-46
2021/12/28 01:15:19;;;;;;;1.15;1.05;;;;;;;18.32;39.24;101096.88;4166208;28;20084;-48
2021/12/28 01:17:20;;;;;;;1.23;1.00;;;;;;;18.29;39.69;101095.47;4165816;28;20480;-45
2021/12/28 01:19:26;;;;;;;1.60;1.00;;;;;;;18.29;39.58;101099.06;4165400;28;20443;-45
2021/12/28 01:21:27;;;;;;;1.13;1.05;;;;;;;18.32;39.36;101105.19;4165898;28;20030;-47
2021/12/28 01:23:29;;;;;;;1.33;1.20;;;;;;;18.32;39.45;101088.56;4166099;28;20087;-52
2021/12/28 01:25:31;;;;;;;1.10;1.00;;;;;;;18.31;39.65;101076.63;4165681;28;20041;-46
2021/12/28 01:27:32;;;;;;;1.10;1.00;;;;;;;18.28;39.39;101093.81;4165046;28;20045;-48
2021/12/28 01:29:34;;;;;;;1.30;1.10;;;;;;;18.29;39.45;101095.47;4165450;28;20551;-47
2021/12/28 01:31:37;;;;;;;1.10;0.90;;;;;;;18.24;39.32;101109.25;4165176;28;20088;-50
2021/12/28 01:33:39;;;;;;;1.33;1.20;;;;;;;18.31;39.62;101117.34;4166189;28;20029;-48
2021/12/28 01:35:41;;;;;;;1.20;1.10;;;;;;;18.33;39.34;101131.81;4166085;28;20063;-48
2021/12/28 01:37:46;;;;;;;1.35;1.10;;;;;;;18.33;39.26;101107.72;4165777;28;20046;-47
2021/12/28 01:39:47;;;;;;;1.85;1.13;;;;;;;18.38;39.32;101104.16;4166097;28;20045;-48
2021/12/28 01:41:51;;;;;;;1.42;1.00;;;;;;;18.43;39.33;101090.34;4165526;28;20033;-47
2021/12/28 01:43:58;;;;;;;1.55;1.23;;;;;;;18.44;38.94;101075.41;4165948;28;20076;-45
2021/12/28 01:46:01;;;;;;;1.45;1.08;;;;;;;18.46;39.25;101032.50;4165248;28;20045;-46
2021/12/28 01:48:04;;;;;;;1.55;1.45;;;;;;;18.48;39.34;101033.03;4165539;28;20029;-47
2021/12/28 01:50:06;;;;;;;1.48;1.20;;;;;;;18.49;39.25;101036.66;4164968;28;20060;-46
2021/12/28 01:52:08;;;;;;;1.10;1.00;;;;;;;18.52;39.05;101017.56;4165687;28;20033;-46
2021/12/28 01:54:12;;;;;;;1.25;1.10;;;;;;;18.54;39.04;101020.06;4164753;28;20122;-48
2021/12/28 01:56:18;;;;;;;1.23;1.10;;;;;;;18.56;39.19;101025.38;4165463;28;20087;-47
2021/12/28 01:58:20;;;;;;;1.23;0.95;;;;;;;18.59;38.76;101047.00;4162851;28;20046;-49
2021/12/28 02:00:23;;;;;;;2.33;1.17;;;;;;;18.62;38.98;101050.09;4165787;28;20029;-46
2021/12/28 02:02:24;;;;;;;1.35;1.20;;;;;;;18.65;38.83;101076.47;4165287;28;20033;-47
2021/12/28 02:04:28;;;;;;;1.40;1.20;;;;;;;18.65;38.74;101143.81;4165058;28;20045;-46
2021/12/28 02:06:30;;;;;;;1.40;1.30;;;;;;;18.66;39.07;101062.31;4164895;28;20054;-49
2021/12/28 02:08:38;;;;;;;1.88;1.13;;;;;;;18.59;38.80;100950.81;4164676;28;20495;-51
2021/12/28 02:10:41;;;;;;;1.77;1.38;;;;;;;18.67;39.15;100986.38;4164748;28;20037;-50
2021/12/28 02:12:43;;;;;;;1.90;1.42;;;;;;;18.70;39.10;100996.97;4165653;28;20033;-47
2021/12/28 02:14:45;;;;;;;1.30;1.20;;;;;;;18.71;39.23;101018.03;4164755;28;20100;-46
2021/12/28 02:16:46;;;;;;;1.48;1.33;;;;;;;18.74;39.15;101013.94;4164445;28;20095;-48
2021/12/28 02:18:48;;;;;;;1.40;1.10;;;;;;;18.71;39.10;101004.19;4165048;28;20095;-46
2021/12/28 02:20:51;;;;;;;1.50;1.13;;;;;;;18.78;38.74;101010.34;4165499;28;20087;-47
2021/12/28 02:22:53;;;;;;;1.73;1.63;;;;;;;18.74;39.27;101009.22;4164451;28;20443;-47
2021/12/28 02:24:54;;;;;;;1.40;1.30;;;;;;;18.83;38.79;101000.38;4164622;28;20209;-46
2021/12/28 02:26:55;;;;;;;1.63;1.27;;;;;;;18.83;38.74;101005.94;4165422;28;20121;-45
2021/12/28 02:28:57;;;;;;;1.70;1.33;;;;;;;18.85;38.88;101020.38;4164912;28;20083;-48
2021/12/28 02:31:00;;;;;;;2.00;1.30;;;;;;;18.85;39.08;101039.78;4165232;28;20083;-45
2021/12/28 02:33:03;;;;;;;1.38;1.27;;;;;;;18.87;38.84;101029.25;4165039;28;20113;-45
2021/12/28 02:35:08;;;;;;;1.25;1.10;;;;;;;18.89;39.06;101010.44;4165190;28;20084;-46
2021/12/28 02:37:09;;;;;;;2.42;1.30;;;;;;;18.89;38.93;101007.66;4164039;28;20103;-45
2021/12/28 02:39:10;;;;;;;1.25;1.10;;;;;;;18.90;38.91;100976.06;4164030;28;20037;-46
2021/12/28 02:41:13;;;;;;;1.58;1.30;;;;;;;18.90;38.96;100974.09;4165056;28;20033;-48
2021/12/28 02:43:18;;;;;;;2.47;1.40;;;;;;;18.92;39.12;101005.19;4164279;28;20111;-48
2021/12/28 02:45:28;;;;;;;1.35;1.23;;;;;;;18.94;39.03;101018.78;4164848;28;20025;-48
2021/12/28 02:47:32;;;;;;;1.85;1.13;;;;;;;18.94;39.03;101018.78;4164893;28;20111;-47
2021/12/28 02:49:36;;;;;;;6.45;1.60;;;;;;;18.95;38.63;101009.34;4165203;28;20295;-44
2021/12/28 02:51:38;;;;;;;1.45;1.23;;;;;;;18.98;38.94;100981.09;4164194;28;20096;-50
2021/12/28 02:53:40;;;;;;;1.42;1.15;;;;;;;18.98;38.47;100972.78;4164335;28;20045;-47
2021/12/28 02:55:41;;;;;;;1.38;1.27;;;;;;;18.99;39.11;100960.59;4164816;28;20033;-44
2021/12/28 02:57:52;;;;;;;2.13;1.15;;;;;;;18.98;38.89;100964.47;4164476;28;20366;-47
2021/12/28 02:59:54;;;;;;;1.83;1.20;;;;;;;18.98;38.81;100964.47;4163898;28;20091;-45
2021/12/28 03:01:55;;;;;;;2.20;1.20;;;;;;;19.00;39.00;100974.16;4164355;28;20107;-48
2021/12/28 03:04:03;;;;;;;1.98;1.15;;;;;;;19.01;38.91;100975.00;4164872;28;20435;-45
2021/12/28 03:06:07;;;;;;;1.67;1.38;;;;;;;19.03;38.63;100989.47;4164659;28;20118;-46
2021/12/28 03:08:09;;;;;;;1.98;1.10;;;;;;;19.02;38.91;100982.25;4164454;28;20108;-46
2021/12/28 03:10:11;;;;;;;1.58;1.10;;;;;;;19.03;38.63;100976.41;4164992;28;20029;-46
2021/12/28 03:12:13;;;;;;;1.73;1.15;;;;;;;19.04;38.59;100982.81;4164144;28;20362;-46
2021/12/28 03:14:14;;;;;;;1.48;1.00;;;;;;;19.03;38.96;100984.75;4164722;28;20084;-47
2021/12/28 03:16:17;;;;;;;2.08;1.40;;;;;;;18.98;38.71;100959.75;4164863;28;20037;-49
2021/12/28 03:18:19;;;;;;;1.83;1.05;;;;;;;19.03;38.92;100968.09;4164191;28;20539;-45
2021/12/28 03:20:21;;;;;;;1.15;1.00;;;;;;;19.05;38.76;100949.25;4164645;28;20033;-45
2021/12/28 03:22:22;;;;;;;1.55;1.10;;;;;;;19.01;38.84;100958.38;4164086;28;20099;-47
2021/12/28 03:24:24;;;;;;;1.25;1.15;;;;;;;19.06;38.95;100972.28;4163967;28;20389;-46
2021/12/28 03:26:25;;;;;;;1.33;1.10;;;;;;;19.05;38.68;100953.97;4164197;28;20091;-45
2021/12/28 03:28:29;;;;;;;1.08;0.98;;;;;;;19.07;39.05;100959.25;4163678;28;20042;-45
2021/12/28 03:30:31;;;;;;;1.38;1.13;;;;;;;19.08;38.86;100947.88;4164131;28;20045;-46
2021/12/28 03:32:32;;;;;;;1.42;1.10;;;;;;;19.05;38.59;100920.69;4164577;28;20025;-45
2021/12/28 03:34:34;;;;;;;1.20;1.10;;;;;;;19.08;38.71;100925.69;4164482;28;20077;-46
2021/12/28 03:36:35;;;;;;;1.27;1.10;;;;;;;19.07;38.95;100937.91;4163964;28;20480;-47
2021/12/28 03:38:38;;;;;;;1.23;1.13;;;;;;;19.08;38.58;100947.06;4163199;28;20504;-49
2021/12/28 03:40:40;;;;;;;2.60;1.20;;;;;;;19.09;39.01;100955.09;4179180;28;20044;-44
2021/12/28 03:42:43;;;;;;;1.60;1.40;;;;;;;19.08;39.11;100936.78;4163197;28;20049;-47
2021/12/28 03:44:44;;;;;;;2.65;1.00;;;;;;;19.06;38.89;100950.09;4178915;28;20045;-49
2021/12/28 03:46:45;;;;;;;1.30;1.20;;;;;;;19.09;39.05;100954.25;4163970;28;20095;-48
2021/12/28 03:48:48;;;;;;;1.15;0.85;;;;;;;19.04;39.00;100930.09;4163978;28;20096;-49
2021/12/28 03:50:49;;;;;;;1.30;1.20;;;;;;;19.11;38.68;100913.25;4164347;28;21047;-49
2021/12/28 03:52:51;;;;;;;1.17;1.02;;;;;;;19.08;39.08;100906.28;4164395;28;20076;-46
2021/12/28 03:54:53;;;;;;;1.35;1.08;;;;;;;19.09;38.95;100909.88;4164199;28;20034;-45
2021/12/28 03:56:56;;;;;;;1.50;1.40;;;;;;;19.11;38.79;100902.97;4164588;28;20465;-45
2021/12/28 03:58:57;;;;;;;1.25;1.15;;;;;;;19.12;38.71;100879.69;4164276;28;20407;-45
2021/12/28 04:01:02;;;;;;;1.45;1.20;;;;;;;19.08;39.21;100875.78;4164002;28;20480;-47
2021/12/28 04:03:04;;;;;;;0.90;0.90;;;;;;;19.14;38.89;100905.19;4163749;28;20038;-47
2021/12/28 04:05:06;;;;;;;1.13;1.00;;;;;;;19.16;38.88;100916.88;4164339;28;20481;-45
2021/12/28 04:07:12;;;;;;;1.30;1.20;;;;;;;19.19;38.71;100927.41;4164748;28;20041;-45
2021/12/28 04:09:20;;;;;;;1.55;1.30;;;;;;;19.19;38.72;100915.47;4164177;28;20527;-46
2021/12/28 04:13:24;;;;;;;1.23;1.00;;;;;;;19.19;38.63;100904.38;4164341;28;20100;-46
2021/12/28 04:15:25;;;;;;;1.60;1.40;;;;;;;19.18;38.52;100908.28;4163514;28;20049;-47
2021/12/28 04:17:28;;;;;;;3.08;1.30;;;;;;;19.16;38.84;100930.75;4164233;28;20432;-46
2021/12/28 04:19:30;;;;;;;1.33;1.20;;;;;;;19.17;38.93;100946.28;4163726;28;20030;-48
2021/12/28 04:21:34;;;;;;;1.10;1.00;;;;;;;19.18;38.67;100936.84;4164097;28;20025;-47
2021/12/28 04:23:36;;;;;;;1.20;1.10;;;;;;;19.19;39.35;100915.47;4164197;28;20531;-48
2021/12/28 04:25:38;;;;;;;2.05;1.10;;;;;;;19.18;38.87;100903.56;4164220;28;20033;-50
2021/12/28 04:27:39;;;;;;;1.70;1.10;;;;;;;19.18;38.67;100931.28;4163848;28;20046;-46
2021/12/28 04:29:41;;;;;;;1.42;1.15;;;;;;;19.16;38.91;100916.88;4164354;28;20041;-48
2021/12/28 04:31:42;;;;;;;1.50;1.17;;;;;;;19.19;38.95;100929.34;4164137;28;20095;-47
2021/12/28 04:33:44;;;;;;;1.58;1.15;;;;;;;19.20;38.75;100934.66;4164038;28;20073;-46
2021/12/28 04:35:46;;;;;;;1.33;1.23;;;;;;;19.20;38.86;100940.19;4163683;28;20092;-47
2021/12/28 04:37:48;;;;;;;1.35;1.10;;;;;;;19.20;38.68;100944.91;4164664;28;20111;-45
2021/12/28 04:39:49;;;;;;;2.08;1.40;;;;;;;19.20;38.85;100940.19;4166375;28;20037;-45
2021/12/28 04:41:51;;;;;;;1.77;1.00;;;;;;;19.19;38.60;100930.19;4166701;28;20049;-47
2021/12/28 04:43:53;;;;;;;1.70;1.10;;;;;;;19.20;38.53;100934.66;4166677;28;20088;-51
2021/12/28 04:45:54;;;;;;;1.02;0.90;;;;;;;19.20;38.68;100922.72;4167353;28;20141;-45
2021/12/28 04:47:56;;;;;;;1.85;1.23;;;;;;;19.19;38.67;100927.41;4166026;28;20432;-47
2021/12/28 04:49:58;;;;;;;1.27;1.17;;;;;;;19.19;39.07;100921.03;4166596;28;20076;-52
2021/12/28 04:52:01;;;;;;;1.65;1.00;;;;;;;19.20;39.02;100911.63;4166492;28;20045;-46
2021/12/28 04:54:07;;;;;;;1.60;1.00;;;;;;;19.20;38.73;100918.00;4166892;28;20091;-47
2021/12/28 04:56:08;;;;;;;;;;;;;;;19.18;38.73;100903.56;4166625;28;20435;-46
2021/12/28 04:58:10;;;;;;;1.40;1.30;;;;;;;19.26;38.51;100900.25;4166706;28;19913;-47
2021/12/28 05:00:18;;;;;;;1.42;0.95;;;;;;;19.24;38.84;100883.06;4165207;28;20447;-46
2021/12/28 05:02:22;;;;;;;1.65;1.27;;;;;;;19.19;38.59;100871.94;4166977;28;20080;-46
2021/12/28 05:04:24;;;;;;;1.30;1.10;;;;;;;19.25;38.71;100861.72;4166948;28;20037;-45
2021/12/28 05:06:25;;;;;;;1.70;1.20;;;;;;;19.18;38.71;100825.88;4166831;28;20091;-45
2021/12/28 05:08:27;;;;;;;2.25;1.30;;;;;;;19.23;38.80;100845.31;4166728;28;20025;-44
2021/12/28 05:10:28;;;;;;;1.55;1.20;;;;;;;19.19;38.91;100838.63;4179510;28;20438;-45
2021/12/28 05:12:30;;;;;;;1.42;1.08;;;;;;;19.21;38.58;100847.53;4166473;28;20041;-46
2021/12/28 05:14:32;;;;;;;1.80;1.30;;;;;;;19.21;38.63;100839.22;4165736;28;20531;-44
2021/12/28 05:16:37;;;;;;;1.85;1.02;;;;;;;19.21;38.59;100855.84;4166304;28;20083;-46
2021/12/28 05:18:42;;;;;;;1.45;1.35;;;;;;;19.22;38.81;100865.84;4164750;28;20080;-44
2021/12/28 05:20:44;;;;;;;1.45;1.20;;;;;;;19.23;38.73;100856.41;4166646;28;20045;-46
2021/12/28 05:22:46;;;;;;;1.90;1.20;;;;;;;19.23;38.83;100850.84;4165601;28;20061;-46
2021/12/28 05:24:47;;;;;;;1.42;1.08;;;;;;;19.22;38.72;100860.28;4164469;28;20034;-45
2021/12/28 05:26:49;;;;;;;1.20;1.00;;;;;;;19.17;38.97;100851.97;4166782;28;20037;-45
2021/12/28 05:28:51;;;;;;;1.25;1.10;;;;;;;19.19;38.89;100866.38;4165923;28;20535;-45
2021/12/28 05:30:56;;;;;;;1.70;1.23;;;;;;;19.17;38.74;100840.03;4165411;28;20418;-47
2021/12/28 05:32:57;;;;;;;1.90;1.27;;;;;;;19.19;38.86;100835.88;4166099;28;20322;-47
2021/12/28 05:35:00;;;;;;;1.13;1.00;;;;;;;19.18;38.72;100825.88;4166825;28;20439;-47
2021/12/28 05:37:01;;;;;;;1.95;1.20;;;;;;;19.21;39.06;100821.75;4166522;28;20030;-46
2021/12/28 05:39:04;;;;;;;1.95;1.23;;;;;;;19.19;38.71;100810.91;4164411;28;20034;-48
2021/12/28 05:41:06;;;;;;;1.58;1.20;;;;;;;19.19;39.07;100822.00;4166165;28;20079;-44
2021/12/28 05:43:08;;;;;;;1.00;0.80;;;;;;;19.18;39.07;100820.34;4165708;28;20041;-46
2021/12/28 05:45:10;;;;;;;1.55;1.20;;;;;;;19.17;38.87;100827.00;4165899;28;20107;-47
2021/12/28 05:47:12;;;;;;;1.63;1.08;;;;;;;19.16;38.97;100813.41;4166199;28;20384;-45
2021/12/28 05:49:14;;;;;;;1.70;1.10;;;;;;;19.16;39.03;100808.69;4164527;28;20045;-44
2021/12/28 05:51:16;;;;;;;2.33;1.13;;;;;;;19.16;39.14;100799.53;4165544;28;20427;-46
2021/12/28 05:53:18;;;;;;;1.67;1.15;;;;;;;19.14;38.92;100799.78;4165464;28;20084;-48
2021/12/28 05:55:19;;;;;;;1.35;1.25;;;;;;;19.06;38.86;100792.03;4163685;28;20075;-46
2021/12/28 05:57:21;;;;;;;1.77;1.30;;;;;;;19.13;38.87;100814.78;4180684;28;20451;-45
2021/12/28 05:59:25;;;;;;;1.45;1.00;;;;;;;19.12;38.99;100818.66;4165557;28;20037;-47
2021/12/28 06:01:29;;;;;;;1.60;1.20;;;;;;;19.13;39.04;100819.50;4165209;28;20037;-49
2021/12/28 06:03:36;;;;;;;0.98;0.88;;;;;;;19.06;38.96;100811.44;4165757;28;20473;-45
2021/12/28 06:05:41;;;;;;;1.30;1.15;;;;;;;19.09;39.16;100824.72;4164909;28;20076;-49
2021/12/28 06:07:43;;;;;;;1.85;1.10;;;;;;;19.11;39.16;100830.88;4165343;28;20060;-46
2021/12/28 06:09:47;;;;;;;1.73;1.27;;;;;;;19.11;38.99;100835.59;4164797;28;20034;-44
2021/12/28 06:11:48;;;;;;;1.20;1.00;;;;;;;19.07;39.19;100851.91;4165275;28;20436;-46
2021/12/28 06:13:53;;;;;;;1.23;1.13;;;;;;;19.08;39.29;100848.03;4180365;28;20400;-45
2021/12/28 06:15:55;;;;;;;0.80;0.80;;;;;;;19.10;39.10;100840.25;4165608;28;20090;-45
2021/12/28 06:17:56;;;;;;;1.20;1.00;;;;;;;19.10;39.32;100873.56;4164609;28;20033;-48
2021/12/28 06:19:57;;;;;;;1.48;1.35;;;;;;;19.09;38.86;100866.34;4165853;28;20449;-45
2021/12/28 06:21:59;;;;;;;1.17;0.98;;;;;;;19.07;38.91;100867.72;4164815;28;20041;-44
2021/12/28 06:24:06;;;;;;;1.25;1.10;;;;;;;19.07;38.95;100874.09;4164683;28;20041;-46
2021/12/28 06:26:07;;;;;;;1.10;0.90;;;;;;;19.05;39.27;100887.41;4164745;28;20033;-46
2021/12/28 06:28:09;;;;;;;1.65;1.00;;;;;;;19.05;39.16;100887.41;4165061;28;20033;-44
2021/12/28 06:30:11;;;;;;;1.27;1.00;;;;;;;19.03;39.13;100868.25;4164382;28;20042;-51
2021/12/28 06:32:13;;;;;;;1.20;1.10;;;;;;;19.03;38.98;100850.78;4165050;28;20034;-49
2021/12/28 06:34:14;;;;;;;1.23;1.10;;;;;;;19.05;38.95;100865.22;4164811;28;20034;-44
2021/12/28 06:36:16;;;;;;;1.63;1.20;;;;;;;19.03;39.27;100845.25;4165312;28;20029;-46
2021/12/28 06:38:21;;;;;;;1.10;1.00;;;;;;;19.03;39.17;100868.25;4164789;28;20037;-47
2021/12/28 06:40:23;;;;;;;2.97;1.15;;;;;;;19.03;39.36;100856.34;4164243;28;20033;-47
2021/12/28 06:42:24;;;;;;;1.10;0.90;;;;;;;19.02;39.18;100847.19;4164526;28;20041;-44
2021/12/28 06:44:26;;;;;;;1.08;0.82;;;;;;;19.01;39.14;100852.97;4164799;28;20041;-45
2021/12/28 06:46:27;;;;;;;1.42;1.13;;;;;;;19.00;39.21;100852.16;4164889;28;20037;-46
2021/12/28 06:48:28;;;;;;;1.48;1.10;;;;;;;19.01;39.26;100861.31;4164254;28;20041;-44
2021/12/28 06:50:33;;;;;;;1.42;1.33;;;;;;;19.01;38.93;100852.97;4164470;28;20432;-45
2021/12/28 06:52:35;;;;;;;2.10;1.10;;;;;;;19.00;39.19;100857.69;4164992;28;20053;-45
2021/12/28 06:54:37;;;;;;;1.13;0.95;;;;;;;19.00;39.39;100873.50;4164276;28;20535;-45
2021/12/28 06:56:42;;;;;;;1.33;1.00;;;;;;;19.00;39.22;100840.22;4164601;28;20503;-47
2021/12/28 06:58:43;;;;;;;1.20;1.10;;;;;;;18.98;38.89;100876.56;4163890;28;20092;-44
2021/12/28 07:00:51;;;;;;;1.80;1.00;;;;;;;18.99;39.18;100852.44;4163635;28;20049;-47
2021/12/28 07:02:52;;;;;;;1.83;1.23;;;;;;;18.96;39.01;100828.00;4164855;28;20076;-48
2021/12/28 07:04:53;;;;;;;1.48;1.00;;;;;;;18.92;39.02;100838.81;4164173;28;20054;-49
2021/12/28 07:06:57;;;;;;;1.45;1.23;;;;;;;18.98;39.17;100850.78;4164984;28;20095;-45
2021/12/28 07:08:59;;;;;;;1.35;1.17;;;;;;;18.97;39.01;100854.66;4163752;28;20095;-44
2021/12/28 07:11:01;;;;;;;1.50;1.30;;;;;;;18.92;39.11;100847.16;4164385;28;20374;-49
2021/12/28 07:13:04;;;;;;;1.73;1.52;;;;;;;18.95;39.19;100868.78;4164467;28;20103;-46
2021/12/28 07:15:06;;;;;;;1.67;1.10;;;;;;;18.97;38.96;100871.28;4163858;28;20095;-47
2021/12/28 07:17:08;;;;;;;1.33;1.23;;;;;;;18.96;39.27;100859.34;4164543;28;20041;-45
2021/12/28 07:19:11;;;;;;;1.42;1.20;;;;;;;18.95;39.10;100854.06;4164283;28;20025;-46
2021/12/28 07:21:12;;;;;;;2.47;0.90;;;;;;;18.95;39.36;100865.16;4164030;28;20107;-44
2021/12/28 07:23:14;;;;;;;1.40;1.30;;;;;;;18.92;39.03;100865.69;4164241;28;20057;-47
2021/12/28 07:25:18;;;;;;;1.30;1.20;;;;;;;18.94;39.30;100880.97;4164322;28;20057;-45
2021/12/28 07:27:19;;;;;;;2.08;1.20;;;;;;;18.94;39.44;100885.69;4164366;28;20481;-47
2021/12/28 07:29:21;;;;;;;1.10;1.00;;;;;;;18.94;39.35;100891.22;4163454;28;20315;-47
2021/12/28 07:31:22;;;;;;;1.10;1.00;;;;;;;18.93;39.27;100907.03;4162990;28;20041;-47
2021/12/28 07:33:24;;;;;;;2.00;1.20;;;;;;;18.92;39.08;100910.91;4164928;28;20386;-46
2021/12/28 07:35:25;;;;;;;1.40;1.27;;;;;;;18.92;39.26;100910.91;4164491;28;20084;-46
2021/12/28 07:37:26;;;;;;;1.00;0.90;;;;;;;18.92;39.45;100915.59;4164417;28;20030;-45
2021/12/28 07:39:34;;;;;;;1.10;1.00;;;;;;;18.91;39.22;100913.94;4164400;28;20029;-46
2021/12/28 07:41:36;;;;;;;2.05;1.30;;;;;;;18.91;39.03;100905.63;4164249;28;20033;-49
2021/12/28 07:43:37;;;;;;;1.40;1.17;;;;;;;18.90;39.43;100912.28;4164502;28;20045;-46
2021/12/28 07:45:39;;;;;;;1.55;1.20;;;;;;;18.88;39.08;100895.91;4164190;28;20037;-48
2021/12/28 07:47:42;;;;;;;1.55;1.17;;;;;;;18.88;39.45;100892.31;4163846;28;20042;-47
2021/12/28 07:49:46;;;;;;;1.75;1.38;;;;;;;18.85;39.11;100881.75;4163693;28;20037;-44
2021/12/28 07:51:48;;;;;;;1.52;1.13;;;;;;;18.87;39.32;100868.44;4163504;28;20033;-44
2021/12/28 07:53:50;;;;;;;1.23;1.10;;;;;;;18.88;39.40;100870.13;4164270;28;20037;-44
2021/12/28 07:55:51;;;;;;;2.05;1.20;;;;;;;18.86;39.48;100872.31;4163600;28;20096;-49
2021/12/28 07:57:53;;;;;;;1.10;1.00;;;;;;;18.78;39.24;100879.19;4163474;28;20053;-46
2021/12/28 07:59:54;;;;;;;1.88;1.42;;;;;;;18.82;39.05;100879.50;4162306;28;20072;-42
2021/12/28 08:01:55;;;;;;;1.73;1.30;;;;;;;18.74;39.19;100858.69;4164394;28;20447;-47
2021/12/28 08:03:57;;;;;;;1.63;1.40;;;;;;;18.76;39.21;100870.31;4164108;28;20088;-45
2021/12/28 08:05:58;;;;;;;1.70;1.08;;;;;;;18.76;39.16;100862.00;4163587;28;20045;-46
2021/12/28 08:08:00;;;;;;;1.85;1.40;;;;;;;18.75;39.65;100871.44;4163380;28;20041;-46
2021/12/28 08:10:01;;;;;;;1.83;1.27;;;;;;;18.73;39.40;100855.06;4163303;28;20104;-44
2021/12/28 08:12:03;;;;;;;1.83;1.20;;;;;;;18.70;39.71;100847.28;4165117;28;20453;-45
2021/12/28 08:14:04;;;;;;;1.35;1.02;;;;;;;18.69;39.58;100842.88;4167404;28;20022;-45
2021/12/28 08:16:06;;;;;;;1.20;1.10;;;;;;;18.68;39.28;100838.38;4167369;28;20095;-45
2021/12/28 08:18:09;;;;;;;1.50;1.02;;;;;;;18.67;39.33;100828.38;4166544;28;20119;-46
2021/12/28 08:20:15;;;;;;;1.30;1.10;;;;;;;18.66;39.53;100823.94;4167223;28;20045;-45
2021/12/28 08:22:17;;;;;;;1.40;1.17;;;;;;;18.63;39.48;100816.16;4166814;28;20061;-45
2021/12/28 08:24:18;;;;;;;1.15;1.05;;;;;;;18.58;39.59;100805.06;4167131;28;20091;-47
2021/12/28 08:26:19;;;;;;;1.58;1.20;;;;;;;18.62;39.74;100806.19;4167016;28;20029;-49
2021/12/28 08:28:29;;;;;;;1.60;1.40;;;;;;;18.61;39.58;100809.25;4166571;28;20049;-46
2021/12/28 08:30:34;;;;;;;1.38;1.10;;;;;;;18.61;39.87;100798.97;4166936;28;20054;-46
2021/12/28 08:32:36;;;;;;;1.88;1.30;;;;;;;18.59;39.87;100801.16;4166363;28;20041;-48
2021/12/28 08:34:37;;;;;;;1.90;1.27;;;;;;;18.55;39.99;100800.03;4166759;28;20477;-46
2021/12/28 08:36:39;;;;;;;1.83;1.23;;;;;;;18.58;39.92;100815.31;4166806;28;20029;-44
2021/12/28 08:38:43;;;;;;;2.58;1.10;;;;;;;18.59;39.98;100811.44;4166722;28;20091;-46
2021/12/28 08:40:45;;;;;;;1.08;0.98;;;;;;;18.59;39.84;100811.44;4166421;28;20103;-44
2021/12/28 08:42:47;;;;;;;2.08;1.20;;;;;;;18.56;39.68;100823.91;4166751;28;20103;-47
2021/12/28 08:44:50;;;;;;;1.10;1.00;;;;;;;18.54;39.70;100826.91;4166097;28;20091;-47
2021/12/28 08:46:51;;;;;;;1.42;1.15;;;;;;;18.49;40.02;100832.44;4166040;28;20037;-47
2021/12/28 08:48:52;;;;;;;1.80;1.10;;;;;;;18.50;39.63;100841.56;4166089;28;20045;-49
2021/12/28 08:50:54;;;;;;;1.52;1.10;;;;;;;18.50;39.76;100852.66;4165560;28;20488;-44
2021/12/28 08:52:55;;;;;;;0.88;0.88;;;;;;;18.50;39.78;100849.88;4166261;28;20049;-47
2021/12/28 08:54:57;;;;;;;1.50;1.40;;;;;;;18.50;39.79;100863.75;4166634;28;20504;-45
2021/12/28 08:56:59;;;;;;;1.38;1.02;;;;;;;18.50;39.89;100860.97;4165620;28;20026;-45
2021/12/28 08:59:00;;;;;;;1.40;1.30;;;;;;;18.48;39.75;100877.03;4166217;28;20033;-45
2021/12/28 09:01:03;;;;;;;1.55;1.25;;;;;;;18.47;40.03;100880.91;4166703;28;20111;-48
2021/12/28 09:03:07;;;;;;;1.40;1.30;;;;;;;18.46;39.84;100893.09;4165790;28;20038;-49
2021/12/28 09:05:09;;;;;;;1.45;1.02;;;;;;;18.48;39.93;100915.84;4165958;28;20385;-45
2021/12/28 09:07:14;;;;;;;1.48;1.20;;;;;;;18.45;39.76;100905.28;4166555;28;20033;-46
2021/12/28 09:09:15;;;;;;;1.63;1.20;;;;;;;18.47;39.83;100897.56;4165433;28;20448;-44
2021/12/28 09:11:17;;;;;;;2.50;1.60;;;;;;;18.47;40.19;100905.84;4166479;28;20107;-49
2021/12/28 09:13:21;;;;;;;1.40;1.20;;;;;;;18.47;39.65;100903.09;4165665;28;20456;-48
2021/12/28 09:15:23;;;;;;;1.55;1.25;;;;;;;18.44;39.71;100887.81;4166317;28;20124;-48
2021/12/28 09:17:25;;;;;;;1.30;1.20;;;;;;;18.47;39.66;100892.00;4165664;28;20050;-45
2021/12/28 09:19:26;;;;;;;1.33;1.20;;;;;;;18.45;40.01;100885.88;4165527;28;20179;-50
2021/12/28 09:21:28;;;;;;;1.27;1.08;;;;;;;18.42;39.70;100873.41;4167285;28;20076;-44
2021/12/28 09:23:29;;;;;;;1.33;1.13;;;;;;;18.43;39.82;100860.38;4165211;28;20087;-47
2021/12/28 09:25:31;;;;;;;1.33;1.20;;;;;;;18.38;39.83;100852.03;4166039;28;20045;-45
2021/12/28 09:27:32;;;;;;;1.20;1.10;;;;;;;18.39;40.13;100856.47;4165450;28;20485;-48
2021/12/28 09:29:35;;;;;;;1.80;1.20;;;;;;;18.39;40.10;100868.38;4164373;28;20168;-49
2021/12/28 09:31:37;;;;;;;1.70;1.30;;;;;;;18.41;39.71;100865.34;4165642;28;20053;-44